Time;durP1;ratioP1;P1;durP2;ratioP2;P2;SDS_P1;SDS_P2;PMS_P1;PMS_P2;Temp;Humidity;BMP_temperature;BMP_pressure;BME280_temperature;BME280_humidity;BME280_pressure;Samples;Min_cycle;Max_cycle;Signal;HPM_P1;HPM_P2
2022/03/25 00:02:26;;;;;;;19.88;11.20;;;;;;;7.41;48.88;97075.56;5025772;28;20056;-73
2022/03/25 00:04:53;;;;;;;20.55;10.65;;;;;;;7.36;48.00;97081.00;5027061;28;20049;-74
2022/03/25 00:07:20;;;;;;;19.92;10.48;;;;;;;7.31;48.05;97076.44;5025266;28;20050;-74
2022/03/25 00:09:48;;;;;;;19.15;10.40;;;;;;;7.27;48.27;97072.66;5027167;28;20207;-74
2022/03/25 00:12:15;;;;;;;16.95;10.00;;;;;;;7.21;48.84;97081.91;5025433;28;20045;-76
2022/03/25 00:14:41;;;;;;;16.40;10.23;;;;;;;7.13;48.55;97079.75;5026571;28;20045;-73
2022/03/25 00:17:08;;;;;;;18.13;9.50;;;;;;;7.03;48.94;97081.44;5025302;28;20222;-73
2022/03/25 00:19:34;;;;;;;19.02;9.75;;;;;;;6.90;49.07;97082.03;5026773;28;20116;-74
2022/03/25 00:22:01;;;;;;;16.60;9.02;;;;;;;6.81;49.46;97083.69;5030464;28;20049;-73
2022/03/25 00:24:27;;;;;;;16.05;9.40;;;;;;;6.74;49.64;97078.56;5029779;28;20053;-74
2022/03/25 00:26:55;;;;;;;18.67;8.90;;;;;;;6.70;49.81;97079.38;5030233;28;20049;-73
2022/03/25 00:29:22;;;;;;;19.33;8.38;;;;;;;6.67;49.85;97075.31;5029370;28;20049;-74
2022/03/25 00:31:48;;;;;;;15.77;9.05;;;;;;;6.68;49.98;97076.97;5030881;28;20057;-76
2022/03/25 00:34:15;;;;;;;14.90;8.73;;;;;;;6.70;50.16;97071.28;5029184;28;20427;-73
2022/03/25 00:36:41;;;;;;;13.52;8.35;;;;;;;6.70;50.44;97076.69;5030158;28;20045;-73
2022/03/25 00:39:08;;;;;;;17.95;8.95;;;;;;;6.70;50.99;97069.38;5029315;28;20049;-74
2022/03/25 00:41:36;;;;;;;14.35;9.13;;;;;;;6.70;50.79;97071.28;5030280;28;20103;-74
2022/03/25 00:44:06;;;;;;;16.23;8.63;;;;;;;6.68;51.70;97062.59;5029270;28;20066;-72
2022/03/25 00:46:33;;;;;;;17.23;8.90;;;;;;;6.68;50.94;97074.25;5029707;28;20204;-74
2022/03/25 00:48:59;;;;;;;19.90;9.23;;;;;;;6.68;51.02;97071.56;5030351;28;20410;-74
2022/03/25 00:51:26;;;;;;;17.30;9.40;;;;;;;6.65;50.73;97069.38;5028743;28;20049;-74
2022/03/25 00:53:53;;;;;;;16.95;9.40;;;;;;;6.60;51.00;97065.88;5030655;28;20416;-75
2022/03/25 00:56:20;;;;;;;14.63;9.02;;;;;;;6.57;51.19;97058.31;5028816;28;20053;-73
2022/03/25 00:58:47;;;;;;;14.90;8.27;;;;;;;6.56;51.10;97059.41;5030513;28;20134;-74
2022/03/25 01:01:15;;;;;;;14.50;8.40;;;;;;;6.53;50.86;97061.56;5028847;28;20500;-74
2022/03/25 01:03:42;;;;;;;17.65;10.00;;;;;;;6.54;51.22;97065.91;5029970;28;20049;-74
2022/03/25 01:06:08;;;;;;;15.10;8.48;;;;;;;6.51;51.17;97061.03;5029041;28;20053;-73
2022/03/25 01:08:35;;;;;;;16.88;8.68;;;;;;;6.47;51.28;97051.84;5029602;28;20050;-74
2022/03/25 01:11:04;;;;;;;18.83;9.38;;;;;;;6.45;50.84;97054.00;5029378;28;20053;-71
2022/03/25 01:13:33;;;;;;;15.27;8.80;;;;;;;6.45;51.03;97064.03;5029218;28;20048;-74
2022/03/25 01:16:00;;;;;;;14.13;8.77;;;;;;;6.39;50.88;97055.09;5029297;28;20143;-74
2022/03/25 01:18:29;;;;;;;16.83;9.43;;;;;;;6.33;50.65;97061.63;5028578;28;20056;-74
2022/03/25 01:20:55;;;;;;;15.30;8.82;;;;;;;6.25;50.73;97059.44;5029441;28;20511;-74
2022/03/25 01:23:22;;;;;;;14.90;9.18;;;;;;;6.16;51.48;97055.66;5028554;28;20435;-74
2022/03/25 01:25:48;;;;;;;19.13;9.73;;;;;;;6.11;51.20;97055.69;5029374;28;20057;-74
2022/03/25 01:28:15;;;;;;;15.57;8.93;;;;;;;6.08;51.19;97053.53;5028368;28;20053;-74
2022/03/25 01:30:42;;;;;;;16.13;8.48;;;;;;;6.03;51.36;97056.25;5029339;28;20416;-74
2022/03/25 01:33:09;;;;;;;15.35;8.60;;;;;;;5.99;51.79;97061.38;5028011;28;20041;-73
2022/03/25 01:35:37;;;;;;;15.82;9.10;;;;;;;5.91;52.06;97060.03;5028446;28;20688;-73
2022/03/25 01:38:04;;;;;;;14.30;9.18;;;;;;;5.83;51.50;97062.44;5028904;28;20053;-73
2022/03/25 01:40:31;;;;;;;17.60;9.40;;;;;;;5.74;51.45;97057.56;5028293;28;20068;-74
2022/03/25 01:42:57;;;;;;;15.32;9.05;;;;;;;5.70;52.25;97059.19;5029071;28;20507;-74
2022/03/25 01:45:32;;;;;;;15.85;9.70;;;;;;;5.66;53.16;97057.28;5027492;28;20049;-74
2022/03/25 01:47:58;;;;;;;13.55;8.05;;;;;;;5.64;54.09;97059.47;5028985;28;20652;-74
2022/03/25 01:50:26;;;;;;;17.77;8.65;;;;;;;5.63;54.37;97057.81;5028442;28;20045;-73
2022/03/25 01:52:54;;;;;;;14.77;7.70;;;;;;;5.62;53.75;97050.78;5028439;28;20049;-74
2022/03/25 01:55:26;;;;;;;14.77;8.07;;;;;;;5.62;53.93;97050.78;5027872;28;20045;-74
2022/03/25 01:57:56;;;;;;;13.02;8.00;;;;;;;5.62;53.72;97050.78;5027734;28;20053;-73
2022/03/25 02:00:24;;;;;;;16.42;8.02;;;;;;;5.62;53.80;97050.78;5028436;28;20051;-76
2022/03/25 02:02:51;;;;;;;12.82;7.88;;;;;;;5.65;53.58;97055.66;5028033;28;20512;-73
2022/03/25 02:05:18;;;;;;;15.25;8.20;;;;;;;5.63;53.34;97055.09;5028229;28;20053;-73
2022/03/25 02:07:45;;;;;;;16.27;8.63;;;;;;;5.65;53.70;97053.78;5027930;28;20049;-73
2022/03/25 02:10:13;;;;;;;14.32;8.10;;;;;;;5.65;53.93;97052.97;5028297;28;20045;-74
2022/03/25 02:12:40;;;;;;;18.88;8.13;;;;;;;5.66;53.77;97051.88;5028101;28;20045;-74
2022/03/25 02:15:08;;;;;;;14.05;8.40;;;;;;;5.67;53.14;97056.19;5027494;28;20103;-73
2022/03/25 02:17:35;;;;;;;16.65;8.13;;;;;;;5.67;52.82;97048.09;5028226;28;20041;-73
2022/03/25 02:20:07;;;;;;;15.10;8.43;;;;;;;5.64;52.45;97051.34;5027468;28;20053;-74
2022/03/25 02:22:35;;;;;;;13.63;8.27;;;;;;;5.58;52.48;97047.00;5028446;28;20049;-75
2022/03/25 02:25:03;;;;;;;14.82;8.60;;;;;;;5.50;52.96;97049.16;5027214;28;20060;-72
2022/03/25 02:27:31;;;;;;;14.85;8.32;;;;;;;5.42;53.42;97051.56;5028342;28;20683;-73
2022/03/25 02:29:58;;;;;;;13.45;8.13;;;;;;;5.33;53.63;97056.72;5027570;28;20057;-73
2022/03/25 02:32:24;;;;;;;13.38;7.85;;;;;;;5.24;53.94;97050.19;5027465;28;20048;-73
2022/03/25 02:34:50;;;;;;;10.98;6.93;;;;;;;5.16;54.34;97045.31;5027608;28;20137;-73
2022/03/25 02:37:19;;;;;;;19.25;7.93;;;;;;;5.08;54.52;97045.84;5026941;28;20511;-74
2022/03/25 02:39:47;;;;;;;15.27;7.65;;;;;;;5.01;54.69;97043.38;5027764;28;20057;-73
2022/03/25 02:42:13;;;;;;;12.00;7.13;;;;;;;4.97;54.45;97043.09;5026725;28;20068;-73
2022/03/25 02:44:40;;;;;;;12.68;8.13;;;;;;;4.95;54.95;97042.53;5026794;28;20049;-73
2022/03/25 02:47:06;;;;;;;13.85;7.88;;;;;;;4.95;55.00;97047.94;5026584;28;20049;-73
2022/03/25 02:49:33;;;;;;;13.23;7.38;;;;;;;4.98;54.53;97047.44;5028154;28;20049;-73
2022/03/25 02:51:59;;;;;;;13.52;8.10;;;;;;;4.98;54.55;97047.44;5026895;28;20049;-73
2022/03/25 02:54:26;;;;;;;14.95;8.35;;;;;;;4.99;54.47;97050.94;5027365;28;20527;-75
2022/03/25 02:56:53;;;;;;;14.63;8.02;;;;;;;5.00;54.32;97054.44;5027014;28;20041;-74
2022/03/25 02:59:20;;;;;;;15.35;8.02;;;;;;;4.95;54.27;97047.94;5027179;28;20053;-73
2022/03/25 03:01:46;;;;;;;13.43;7.82;;;;;;;4.93;54.51;97044.72;5027178;28;20060;-74
2022/03/25 03:04:13;;;;;;;11.88;7.82;;;;;;;4.92;54.61;97048.50;5026857;28;20060;-74
2022/03/25 03:06:39;;;;;;;12.57;7.93;;;;;;;4.85;54.74;97050.59;5027354;28;20676;-73
2022/03/25 03:09:06;;;;;;;13.27;7.53;;;;;;;4.83;55.17;97049.25;5026382;28;20053;-73
2022/03/25 03:11:33;;;;;;;14.10;8.00;;;;;;;4.74;55.48;97051.63;5027897;28;20460;-74
2022/03/25 03:14:01;;;;;;;13.55;7.40;;;;;;;4.65;55.58;97053.25;5026163;28;20504;-73
2022/03/25 03:16:27;;;;;;;15.45;8.07;;;;;;;4.58;55.76;97058.84;5027216;28;20059;-74
2022/03/25 03:18:54;;;;;;;14.65;7.97;;;;;;;4.51;55.94;97057.47;5026718;28;20045;-73
2022/03/25 03:21:24;;;;;;;11.20;7.40;;;;;;;4.44;56.14;97053.13;5026866;28;20049;-73
2022/03/25 03:23:51;;;;;;;13.23;7.70;;;;;;;4.42;56.52;97059.84;5026969;28;20599;-74
2022/03/25 03:26:18;;;;;;;12.43;7.10;;;;;;;4.38;56.63;97062.25;5026414;28;20096;-74
2022/03/25 03:28:45;;;;;;;16.20;8.07;;;;;;;4.37;56.57;97057.94;5026984;28;20788;-74
2022/03/25 03:31:13;;;;;;;13.90;7.63;;;;;;;4.39;56.69;97055.81;5025957;28;20563;-73
2022/03/25 03:33:40;;;;;;;15.27;7.45;;;;;;;4.42;56.48;97066.06;5027059;28;20056;-74
2022/03/25 03:36:06;;;;;;;13.00;7.30;;;;;;;4.46;56.36;97060.97;5025409;28;20423;-74
2022/03/25 03:38:33;;;;;;;12.57;7.03;;;;;;;4.47;56.28;97056.38;5027311;28;20690;-74
2022/03/25 03:40:59;;;;;;;13.30;7.32;;;;;;;4.42;56.37;97063.34;5026478;28;20519;-73
2022/03/25 03:43:26;;;;;;;15.52;7.22;;;;;;;4.41;56.30;97053.66;5033846;28;20514;-74
2022/03/25 03:45:52;;;;;;;13.73;7.15;;;;;;;4.38;56.36;97059.53;5046094;28;20060;-74
2022/03/25 03:48:20;;;;;;;14.50;7.60;;;;;;;4.32;56.72;97052.50;5046614;28;20060;-74
2022/03/25 03:50:46;;;;;;;14.20;7.03;;;;;;;4.32;56.77;97054.41;5046997;28;20135;-73
2022/03/25 03:53:13;;;;;;;14.38;7.53;;;;;;;4.32;57.11;97060.59;5045517;28;20037;-74
2022/03/25 03:55:39;;;;;;;12.15;7.80;;;;;;;4.33;57.13;97048.75;5046590;28;20055;-73
2022/03/25 03:58:06;;;;;;;14.00;7.38;;;;;;;4.35;57.07;97060.09;5045902;28;20052;-73
2022/03/25 04:00:32;;;;;;;11.57;7.05;;;;;;;4.36;56.87;97050.91;5046697;28;20522;-73
2022/03/25 04:02:59;;;;;;;15.07;7.13;;;;;;;4.34;56.56;97055.78;5045860;28;20053;-73
2022/03/25 04:05:27;;;;;;;12.10;7.70;;;;;;;4.33;56.46;97051.47;5045929;28;20521;-73
2022/03/25 04:07:53;;;;;;;16.73;7.43;;;;;;;4.30;56.63;97051.97;5045992;28;20049;-74
2022/03/25 04:10:20;;;;;;;15.60;7.65;;;;;;;4.26;56.70;97056.25;5045808;28;20049;-73
2022/03/25 04:12:47;;;;;;;14.27;7.25;;;;;;;4.24;56.75;97053.00;5044644;28;20048;-73
2022/03/25 04:15:15;;;;;;;13.57;7.32;;;;;;;4.18;57.14;97049.47;5045535;28;20045;-73
2022/03/25 04:17:43;;;;;;;13.15;7.43;;;;;;;4.15;57.10;97054.56;5046295;28;20482;-73
2022/03/25 04:20:13;;;;;;;12.02;7.38;;;;;;;4.14;57.08;97047.56;5045187;28;20060;-74
2022/03/25 04:22:41;;;;;;;13.30;7.78;;;;;;;4.14;56.88;97050.25;5046734;28;20075;-73
2022/03/25 04:25:08;;;;;;;14.93;8.00;;;;;;;4.08;56.94;97051.28;5044911;28;20479;-73
2022/03/25 04:27:34;;;;;;;13.23;7.15;;;;;;;4.03;57.24;97043.16;5046516;28;20540;-73
2022/03/25 04:30:01;;;;;;;14.75;7.15;;;;;;;4.02;57.23;97049.59;5045542;28;20060;-74
2022/03/25 04:32:28;;;;;;;14.30;8.13;;;;;;;3.99;57.49;97047.44;5045484;28;20052;-74
2022/03/25 04:34:54;;;;;;;15.40;8.30;;;;;;;3.93;57.44;97050.09;5045652;28;20057;-73
2022/03/25 04:37:21;;;;;;;13.93;8.02;;;;;;;3.93;57.54;97052.00;5045364;28;20049;-74
2022/03/25 04:39:48;;;;;;;14.77;8.45;;;;;;;3.97;58.04;97052.25;5045933;28;20080;-73
2022/03/25 04:42:15;;;;;;;12.48;7.75;;;;;;;3.99;57.40;97055.53;5043503;28;20048;-73
2022/03/25 04:44:42;;;;;;;17.27;7.95;;;;;;;3.98;57.58;97053.91;5026651;28;20045;-74
2022/03/25 04:47:08;;;;;;;15.15;8.23;;;;;;;3.95;57.19;97054.41;5024698;28;20053;-73
2022/03/25 04:49:35;;;;;;;14.48;7.43;;;;;;;3.87;57.77;97067.31;5026457;28;20045;-73
2022/03/25 04:52:01;;;;;;;15.85;7.70;;;;;;;3.82;57.97;97067.28;5025380;28;20427;-73
2022/03/25 04:54:28;;;;;;;19.58;8.25;;;;;;;3.79;57.74;97065.06;5026205;28;20045;-74
2022/03/25 04:56:55;;;;;;;13.52;7.78;;;;;;;3.80;57.80;97068.56;5025358;28;20547;-74
2022/03/25 04:59:22;;;;;;;14.30;8.07;;;;;;;3.83;58.19;97074.28;5025587;28;20057;-73
2022/03/25 05:01:48;;;;;;;17.45;7.72;;;;;;;3.82;58.55;97064.56;5025774;28;20046;-73
2022/03/25 05:04:15;;;;;;;16.23;8.30;;;;;;;3.83;58.68;97071.59;5025382;28;20052;-74
2022/03/25 05:06:41;;;;;;;16.38;8.65;;;;;;;3.83;58.03;97074.28;5026478;28;20045;-73
2022/03/25 05:09:10;;;;;;;16.10;8.45;;;;;;;3.82;57.81;97077.22;5028699;28;20072;-73
2022/03/25 05:11:37;;;;;;;13.68;8.10;;;;;;;3.80;58.71;97082.84;5029719;28;20496;-73
2022/03/25 05:14:05;;;;;;;17.42;8.05;;;;;;;3.82;58.67;97080.75;5029161;28;20564;-74
2022/03/25 05:16:32;;;;;;;15.90;9.05;;;;;;;3.80;58.06;97085.56;5029324;28;20053;-73
2022/03/25 05:18:58;;;;;;;15.98;8.63;;;;;;;3.77;57.91;97079.88;5028642;28;20049;-73
2022/03/25 05:21:25;;;;;;;16.23;7.97;;;;;;;3.74;58.03;97086.59;5028575;28;20046;-73
2022/03/25 05:23:51;;;;;;;14.75;8.40;;;;;;;3.75;58.01;97082.81;5028850;28;20048;-73
2022/03/25 05:26:17;;;;;;;17.33;8.32;;;;;;;3.76;58.08;97075.53;5028107;28;20045;-73
2022/03/25 05:28:44;;;;;;;14.52;8.43;;;;;;;3.74;58.19;97075.81;5029220;28;20049;-73
2022/03/25 05:31:12;;;;;;;12.25;7.93;;;;;;;3.72;58.66;97072.56;5028086;28;20057;-73
2022/03/25 05:33:38;;;;;;;19.88;8.70;;;;;;;3.73;58.37;97079.56;5029222;28;20050;-73
2022/03/25 05:36:05;;;;;;;15.98;8.43;;;;;;;3.75;58.46;97085.50;5027522;28;20057;-74
2022/03/25 05:38:32;;;;;;;16.83;8.30;;;;;;;3.77;58.29;97085.28;5029010;28;20407;-73
2022/03/25 05:40:58;;;;;;;15.57;9.25;;;;;;;3.80;58.43;97090.94;5027736;28;20056;-75
2022/03/25 05:43:25;;;;;;;15.25;8.43;;;;;;;3.85;58.46;97088.28;5025950;28;20443;-74
2022/03/25 05:45:51;;;;;;;17.20;8.82;;;;;;;3.88;58.32;97090.47;5028275;28;20439;-74
2022/03/25 05:48:19;;;;;;;18.50;8.90;;;;;;;3.91;58.41;97092.69;5027882;28;20420;-74
2022/03/25 05:50:45;;;;;;;19.35;8.50;;;;;;;3.97;58.20;97090.00;5028195;28;20057;-73
2022/03/25 05:53:12;;;;;;;17.63;9.25;;;;;;;4.02;58.08;97104.34;5027012;28;20065;-76
2022/03/25 05:55:38;;;;;;;17.02;8.38;;;;;;;4.08;58.04;97097.09;5028456;28;20423;-73
2022/03/25 05:58:06;;;;;;;15.32;8.65;;;;;;;4.14;58.60;97107.66;5027294;28;20049;-73
2022/03/25 06:00:34;;;;;;;14.00;8.57;;;;;;;4.21;58.38;97099.34;5028842;28;20124;-74
2022/03/25 06:03:00;;;;;;;16.92;8.23;;;;;;;4.24;57.74;97101.53;5027771;28;20060;-73
2022/03/25 06:05:28;;;;;;;19.98;8.70;;;;;;;4.32;58.08;97103.72;5028018;28;20054;-74
2022/03/25 06:07:55;;;;;;;18.52;9.35;;;;;;;4.42;57.97;97103.81;5027836;28;20396;-74
2022/03/25 06:10:21;;;;;;;19.23;9.13;;;;;;;4.49;58.02;97103.59;5027901;28;20099;-74
2022/03/25 06:12:48;;;;;;;17.83;9.10;;;;;;;4.54;57.99;97100.94;5027638;28;20571;-73
2022/03/25 06:15:14;;;;;;;16.67;8.48;;;;;;;4.61;57.49;97114.19;5027804;28;20052;-74
2022/03/25 06:17:42;;;;;;;18.13;9.25;;;;;;;4.71;57.17;97108.84;5027880;28;20054;-74
2022/03/25 06:20:09;;;;;;;18.40;8.65;;;;;;;4.80;57.60;97103.75;5027123;28;20045;-75
2022/03/25 06:22:39;;;;;;;15.98;8.93;;;;;;;4.89;57.61;97102.97;5027888;28;20487;-74
2022/03/25 06:25:07;;;;;;;15.32;8.68;;;;;;;5.01;57.13;97105.44;5027165;28;20049;-75
2022/03/25 06:27:34;;;;;;;17.88;9.20;;;;;;;5.11;56.56;97100.09;5028436;28;20049;-74
2022/03/25 06:30:00;;;;;;;15.52;9.52;;;;;;;5.20;56.50;97103.91;5027581;28;20401;-73
2022/03/25 06:32:27;;;;;;;17.33;9.45;;;;;;;5.33;56.37;97101.81;5027659;28;20041;-75
2022/03/25 06:34:54;;;;;;;18.88;8.90;;;;;;;5.46;56.48;97104.00;5027508;28;20056;-73
2022/03/25 06:37:21;;;;;;;17.00;10.13;;;;;;;5.53;55.22;97106.44;5027417;28;20452;-73
2022/03/25 06:39:49;;;;;;;20.00;10.20;;;;;;;5.57;54.74;97112.94;5027935;28;20807;-73
2022/03/25 06:42:16;;;;;;;17.67;9.18;;;;;;;5.67;54.64;97112.94;5027145;28;20041;-73
2022/03/25 06:44:42;;;;;;;17.52;10.85;;;;;;;5.78;54.75;97109.16;5028048;28;20115;-73
2022/03/25 06:47:09;;;;;;;22.30;9.68;;;;;;;5.85;54.41;97115.16;5026564;28;20049;-73
2022/03/25 06:49:36;;;;;;;18.25;9.48;;;;;;;5.84;54.83;97113.50;5025806;28;20053;-73
2022/03/25 06:52:03;;;;;;;17.13;9.40;;;;;;;6.03;54.66;97118.44;5026306;28;20057;-73
2022/03/25 06:54:30;;;;;;;20.52;11.07;;;;;;;6.15;54.38;97113.53;5027862;28;20053;-73
2022/03/25 06:56:59;;;;;;;18.73;9.98;;;;;;;6.26;54.18;97113.28;5026752;28;20052;-74
2022/03/25 06:59:26;;;;;;;19.40;10.80;;;;;;;6.42;54.71;97116.78;5026918;28;20515;-75
2022/03/25 07:01:53;;;;;;;16.65;9.50;;;;;;;6.51;53.94;97117.03;5027587;28;20045;-73
2022/03/25 07:04:20;;;;;;;19.25;10.60;;;;;;;6.23;54.57;97121.13;5026474;28;20060;-73
2022/03/25 07:06:49;;;;;;;18.17;9.95;;;;;;;6.35;55.08;97118.94;5027026;28;20141;-74
2022/03/25 07:09:16;;;;;;;21.75;10.13;;;;;;;6.59;54.41;97121.09;5026381;28;20050;-74
2022/03/25 07:11:43;;;;;;;24.38;10.60;;;;;;;6.77;54.26;97125.91;5027880;28;20049;-74
2022/03/25 07:14:11;;;;;;;21.75;11.15;;;;;;;6.83;53.55;97129.41;5027259;28;20067;-74
2022/03/25 07:16:42;;;;;;;19.45;11.73;;;;;;;7.40;51.50;97126.22;5027413;28;20056;-75
2022/03/25 07:19:08;;;;;;;19.55;10.80;;;;;;;8.36;49.32;97124.81;5025618;28;20045;-73
2022/03/25 07:21:35;;;;;;;19.08;10.10;;;;;;;9.22;46.73;97129.63;5026611;28;20056;-74
2022/03/25 07:24:01;;;;;;;17.75;10.25;;;;;;;9.92;43.31;97127.88;5027107;28;20057;-75
2022/03/25 07:26:28;;;;;;;20.38;12.20;;;;;;;9.66;43.67;97124.72;5026025;28;20487;-75
2022/03/25 07:28:54;;;;;;;20.83;11.63;;;;;;;10.15;43.36;97125.34;5026882;28;20499;-76
2022/03/25 07:31:28;;;;;;;17.95;10.68;;;;;;;10.53;42.40;97128.84;5025592;28;20057;-77
2022/03/25 07:33:54;;;;;;;20.50;10.40;;;;;;;11.50;40.75;97121.56;5027374;28;20107;-78
2022/03/25 07:36:21;;;;;;;19.73;11.52;;;;;;;11.31;39.06;97126.31;5024213;28;20048;-76
2022/03/25 07:38:47;;;;;;;23.40;11.20;;;;;;;11.45;39.21;97129.84;5026890;28;20066;-77
2022/03/25 07:41:14;;;;;;;20.13;12.40;;;;;;;11.34;39.63;97128.44;5024984;28;20136;-77
2022/03/25 07:43:41;;;;;;;20.65;11.32;;;;;;;12.22;38.06;97129.81;5027430;28;20053;-77
2022/03/25 07:46:07;;;;;;;21.75;11.25;;;;;;;12.40;36.49;97132.66;5026167;28;20049;-79
2022/03/25 07:48:35;;;;;;;20.02;11.95;;;;;;;12.28;36.67;97136.75;5025911;28;20049;-78
2022/03/25 07:51:02;;;;;;;20.42;12.07;;;;;;;13.15;36.66;97133.72;5026186;28;20056;-77
2022/03/25 07:53:29;;;;;;;22.23;13.18;;;;;;;13.95;33.06;97134.47;5025852;28;20124;-77
2022/03/25 07:55:55;;;;;;;23.60;13.13;;;;;;;14.08;32.19;97136.22;5026815;28;20277;-77
2022/03/25 07:58:23;;;;;;;18.17;12.13;;;;;;;14.47;33.07;97128.97;5024670;28;20064;-79
2022/03/25 08:00:50;;;;;;;21.60;12.93;;;;;;;15.14;33.51;97133.84;5027062;28;20580;-77
2022/03/25 08:03:17;;;;;;;21.42;12.90;;;;;;;15.38;32.00;97131.31;5025395;28;20054;-77
2022/03/25 08:05:47;;;;;;;24.48;13.15;;;;;;;15.59;31.29;97138.81;5026515;28;20045;-77
2022/03/25 08:08:15;;;;;;;24.33;13.50;;;;;;;15.96;30.21;97141.84;5025727;28;20645;-77
2022/03/25 08:10:41;;;;;;;21.38;14.07;;;;;;;16.17;30.08;97139.91;5026359;28;20139;-79
2022/03/25 08:13:09;;;;;;;23.60;13.95;;;;;;;16.54;28.30;97142.84;5026677;28;20408;-78
2022/03/25 08:15:36;;;;;;;23.92;12.88;;;;;;;16.91;29.02;97138.28;5026087;28;20057;-77
2022/03/25 08:18:05;;;;;;;24.55;13.82;;;;;;;16.70;28.16;97150.16;5026222;28;20061;-79
2022/03/25 08:20:35;;;;;;;22.38;13.18;;;;;;;17.30;28.07;97145.16;5025704;28;20527;-78
2022/03/25 08:23:05;;;;;;;21.52;14.05;;;;;;;17.13;27.85;97148.13;5026203;28;20084;-76
2022/03/25 08:28:18;;;;;;;21.55;14.45;;;;;;;18.05;28.72;97142.06;5025903;28;20077;-78
2022/03/25 08:30:46;;;;;;;23.35;13.68;;;;;;;18.43;26.67;97147.16;5026065;28;20504;-79
2022/03/25 08:33:13;;;;;;;23.70;14.50;;;;;;;19.11;25.30;97148.25;5025519;28;20054;-78
2022/03/25 08:35:40;;;;;;;27.08;15.60;;;;;;;19.59;24.53;97132.50;5026583;28;20072;-77
2022/03/25 08:38:10;;;;;;;25.85;15.55;;;;;;;20.04;23.90;97141.09;5025251;28;20048;-76
2022/03/25 08:40:38;;;;;;;24.20;14.70;;;;;;;20.34;23.78;97146.09;5026828;28;20454;-78
2022/03/25 08:43:06;;;;;;;23.33;13.98;;;;;;;20.76;24.48;97142.63;5028120;28;20500;-77
2022/03/25 08:45:33;;;;;;;20.92;14.55;;;;;;;20.80;23.87;97149.06;5030094;28;20504;-78
2022/03/25 08:48:00;;;;;;;21.85;14.35;;;;;;;20.68;25.89;97151.97;5029424;28;20049;-77
2022/03/25 08:50:27;;;;;;;22.02;15.07;;;;;;;20.98;23.42;97150.19;5029849;28;20068;-78
2022/03/25 08:52:54;;;;;;;22.52;15.30;;;;;;;20.94;24.57;97157.63;5029763;28;20049;-77
2022/03/25 08:55:22;;;;;;;27.73;15.82;;;;;;;21.47;24.09;97159.81;5028836;28;20056;-78
2022/03/25 08:57:49;;;;;;;24.30;16.13;;;;;;;21.41;23.04;97151.00;5029715;28;20046;-78
2022/03/25 09:00:18;;;;;;;30.33;16.55;;;;;;;21.43;22.51;97154.19;5028396;28;20076;-77
2022/03/25 09:02:46;;;;;;;27.20;16.65;;;;;;;21.66;22.70;97150.63;5030179;28;20060;-78
2022/03/25 09:05:13;;;;;;;29.50;16.40;;;;;;;20.86;22.74;97150.34;5028363;28;20056;-77
2022/03/25 09:07:41;;;;;;;24.40;16.92;;;;;;;21.16;22.79;97149.72;5029765;28;20045;-77
2022/03/25 09:10:09;;;;;;;27.27;16.15;;;;;;;21.47;23.26;97152.31;5028488;28;20064;-79
2022/03/25 09:12:37;;;;;;;26.13;16.40;;;;;;;21.67;22.33;97152.25;5029951;28;20050;-80
2022/03/25 09:15:07;;;;;;;26.52;16.00;;;;;;;21.24;23.06;97145.91;5028798;28;20405;-77
2022/03/25 09:17:33;;;;;;;25.60;16.70;;;;;;;21.17;23.62;97146.59;5028887;28;20399;-77
2022/03/25 09:20:00;;;;;;;27.13;16.50;;;;;;;20.93;23.48;97150.47;5029689;28;20065;-78
2022/03/25 09:22:26;;;;;;;28.23;16.63;;;;;;;20.78;24.40;97152.19;5028334;28;20049;-78
2022/03/25 09:24:53;;;;;;;22.65;16.45;;;;;;;20.52;23.29;97152.06;5029576;28;20054;-77
2022/03/25 09:27:19;;;;;;;25.75;17.48;;;;;;;20.25;24.64;97151.03;5027888;28;20491;-77
2022/03/25 09:29:47;;;;;;;28.90;16.92;;;;;;;20.11;25.28;97156.25;5029730;28;20061;-77
2022/03/25 09:32:14;;;;;;;23.55;16.77;;;;;;;20.06;24.74;97158.13;5028153;28;20045;-78
2022/03/25 09:37:25;;;;;;;27.83;18.13;;;;;;;20.37;24.57;97153.69;5028500;28;20084;-78
2022/03/25 09:39:52;;;;;;;26.88;18.15;;;;;;;20.50;24.79;97160.69;5028879;28;20057;-77
2022/03/25 09:42:20;;;;;;;27.50;18.05;;;;;;;20.44;26.17;97159.34;5028446;28;20049;-78
2022/03/25 09:44:48;;;;;;;26.25;18.13;;;;;;;20.48;24.24;97160.25;5029021;28;20053;-77
2022/03/25 09:47:16;;;;;;;32.17;17.80;;;;;;;20.65;25.85;97158.22;5028765;28;20150;-78
2022/03/25 09:49:43;;;;;;;26.80;18.02;;;;;;;20.92;24.69;97162.72;5028281;28;20049;-78
2022/03/25 09:52:10;;;;;;;26.77;17.67;;;;;;;21.17;23.24;97159.63;5028421;28;20428;-78
2022/03/25 09:54:37;;;;;;;28.42;17.98;;;;;;;21.20;23.04;97165.25;5027704;28;20088;-79
2022/03/25 09:57:04;;;;;;;30.27;17.60;;;;;;;21.30;23.93;97161.91;5027945;28;20133;-77
2022/03/25 09:59:31;;;;;;;25.75;16.55;;;;;;;21.51;24.33;97155.94;5028318;28;20049;-78
2022/03/25 10:01:58;;;;;;;32.25;18.55;;;;;;;21.76;23.46;97155.53;5028269;28;20057;-77
2022/03/25 10:04:47;;;;;;;24.98;17.67;;;;;;;21.67;22.60;97157.78;5027752;28;20050;-78
2022/03/25 10:07:20;;;;;;;33.70;19.90;;;;;;;21.52;23.58;97152.00;5025092;28;20055;-79
2022/03/25 10:09:49;;;;;;;26.63;18.85;;;;;;;21.16;25.55;97146.97;5028861;28;20152;-78
2022/03/25 10:12:26;;;;;;;29.63;17.95;;;;;;;21.14;25.16;97144.53;5027207;28;20053;-78
2022/03/25 10:15:11;;;;;;;26.70;18.05;;;;;;;21.04;25.09;97145.16;5047449;28;20056;-79
2022/03/25 10:17:52;;;;;;;30.55;18.48;;;;;;;21.03;24.39;97147.13;5047825;28;20053;-78
2022/03/25 10:20:21;;;;;;;27.27;18.00;;;;;;;20.80;24.72;97149.06;5046970;28;20060;-78
2022/03/25 10:23:16;;;;;;;28.65;18.38;;;;;;;20.73;25.32;97148.91;5048526;28;20582;-78
2022/03/25 10:25:45;;;;;;;26.63;17.80;;;;;;;20.76;26.72;97145.41;5022693;28;20057;-78
2022/03/25 10:28:27;;;;;;;28.42;18.38;;;;;;;20.64;25.38;97146.38;5047472;28;20049;-79
2022/03/25 10:30:56;;;;;;;30.58;18.15;;;;;;;20.34;24.77;97146.88;5047641;28;20561;-78
2022/03/25 10:33:31;;;;;;;31.00;17.98;;;;;;;20.06;24.96;97147.06;5046846;28;20049;-78
2022/03/25 10:36:01;;;;;;;34.97;19.05;;;;;;;19.93;24.52;97139.25;5048096;28;20056;-79
2022/03/25 10:38:39;;;;;;;33.85;19.75;;;;;;;19.82;24.68;97141.75;5046695;28;20156;-79
2022/03/25 10:41:06;;;;;;;26.65;16.95;;;;;;;19.83;25.00;97140.59;5047735;28;20056;-79
2022/03/25 10:43:32;;;;;;;29.05;18.77;;;;;;;19.66;24.29;97149.28;5044899;28;20135;-79
2022/03/25 10:45:59;;;;;;;31.58;18.45;;;;;;;19.43;26.07;97138.84;5047659;28;20045;-80
2022/03/25 10:48:25;;;;;;;35.25;18.58;;;;;;;19.42;25.81;97140.00;5046660;28;20057;-77
2022/03/25 10:50:58;;;;;;;28.60;19.02;;;;;;;19.47;25.51;97136.97;5048013;28;20052;-78
2022/03/25 10:53:26;;;;;;;33.30;17.40;;;;;;;19.37;25.47;97133.91;5046717;28;20044;-77
2022/03/25 10:55:57;;;;;;;28.95;16.90;;;;;;;19.52;25.03;97141.41;5047033;28;20342;-78
2022/03/25 10:58:23;;;;;;;26.90;17.88;;;;;;;19.43;24.49;97138.84;5047196;28;20052;-79
2022/03/25 11:00:51;;;;;;;29.02;18.30;;;;;;;19.34;25.27;97138.19;5046649;28;20052;-79
2022/03/25 11:03:18;;;;;;;29.02;18.08;;;;;;;19.47;26.04;97134.19;5046640;28;20075;-79
2022/03/25 11:05:45;;;;;;;26.73;17.33;;;;;;;19.51;25.31;97139.78;5045810;28;20045;-79
2022/03/25 11:08:13;;;;;;;28.67;17.30;;;;;;;19.42;24.51;97130.88;5046867;28;20656;-78
2022/03/25 11:10:40;;;;;;;32.53;17.13;;;;;;;19.53;25.96;97126.44;5046933;28;20131;-78
2022/03/25 11:13:08;;;;;;;25.42;17.42;;;;;;;19.57;26.11;97132.84;5040785;28;20057;-78
2022/03/25 11:15:35;;;;;;;27.33;17.95;;;;;;;19.70;26.01;97123.34;5027275;28;20404;-79
2022/03/25 11:18:02;;;;;;;27.17;17.85;;;;;;;19.85;25.16;97124.47;5026352;28;20045;-78
2022/03/25 11:20:29;;;;;;;24.60;17.23;;;;;;;19.92;24.35;97124.63;5027371;28;20049;-79
2022/03/25 11:23:02;;;;;;;26.58;16.98;;;;;;;19.67;24.02;97123.25;5026642;28;20467;-81
2022/03/25 11:25:32;;;;;;;24.85;17.17;;;;;;;19.51;24.06;97123.22;5027219;28;20037;-79
2022/03/25 11:28:02;;;;;;;30.92;16.65;;;;;;;19.51;25.34;97129.53;5026478;28;20119;-78
2022/03/25 11:30:32;;;;;;;26.60;17.60;;;;;;;19.77;25.37;97120.72;5026770;28;20484;-79
2022/03/25 11:33:07;;;;;;;28.45;16.73;;;;;;;20.03;25.51;97122.09;5026327;28;20065;-78
2022/03/25 11:35:35;;;;;;;26.90;16.80;;;;;;;20.04;25.43;97118.16;5026257;28;20111;-78